Excelsior, Minnesota
Current Conditions -  °F | °C
As of 9:53 AM on Wednesday 28 Jan 2015 (Local Time) from KFCM Reporting Station
Haze Haze  
Wind Chill: 17°   Ceiling: 700
Heat Index: 29°   Visibility: 3mi
Dew Point: 25°   Wind: 16mph
Humidity: 85%   Direction: 130°SE
Pressure: 29.93"   Gusts: NA
Location:  44.9°N, 93.57°W
Report Text: KFCM 281553Z 13014KT 3SM BR OVC007 M02/M04 A2993 RMK AO2 SLP147 T10171039
Loading
Personal Weather Stations






























Interactive Weather Map New forecast layout! Learn more

10-Day Weather Forecast

Advertisements
Track Severe Weather on mobile